Time;durP1;ratioP1;P1;durP2;ratioP2;P2;SDS_P1;SDS_P2;PMS_P1;PMS_P2;Temp;Humidity;BMP_temperature;BMP_pressure;BME280_temperature;BME280_humidity;BME280_pressure;Samples;Min_cycle;Max_cycle;Signal;HPM_P1;HPM_P2
2023/11/30 00:00:07;;;;;;;11.73;5.80;;;;;;;;;;5073892;28;20258;-28
2023/11/30 00:02:32;;;;;;;11.45;5.93;;;;;;;;;;5073327;28;20312;-27
2023/11/30 00:04:58;;;;;;;11.17;5.80;;;;;;;;;;5073359;28;20353;-27
2023/11/30 00:07:23;;;;;;;11.10;5.97;;;;;;;;;;5073323;28;20373;-27
2023/11/30 00:09:48;;;;;;;11.97;7.17;;;;;;;;;;5073575;28;20115;-27
2023/11/30 00:12:13;;;;;;;14.93;6.20;;;;;;;;;;5072781;28;20262;-27
2023/11/30 00:14:38;;;;;;;15.17;5.97;;;;;;;;;;5073242;28;20745;-28
2023/11/30 00:17:04;;;;;;;12.23;6.05;;;;;;;;;;5073439;28;20312;-27
2023/11/30 00:19:29;;;;;;;10.10;5.82;;;;;;;;;;5073350;28;20055;-27
2023/11/30 00:21:54;;;;;;;9.40;5.53;;;;;;;;;;5073442;28;20367;-27
2023/11/30 00:24:19;;;;;;;11.80;5.90;;;;;;;;;;5073657;28;20079;-27
2023/11/30 00:26:45;;;;;;;10.77;6.03;;;;;;;;;;5073607;28;20274;-27
2023/11/30 00:29:10;;;;;;;10.93;6.15;;;;;;;;;;5073275;28;20722;-27
2023/11/30 00:31:35;;;;;;;12.65;6.15;;;;;;;;;;5073366;28;20017;-27
2023/11/30 00:34:00;;;;;;;12.90;6.20;;;;;;;;;;5073052;28;20027;-26
2023/11/30 00:36:25;;;;;;;10.80;5.93;;;;;;;;;;5076745;28;20330;-27
2023/11/30 00:38:50;;;;;;;11.07;6.03;;;;;;;;;;5077415;28;20266;-27
2023/11/30 00:41:16;;;;;;;10.53;5.80;;;;;;;;;;5076919;28;20826;-27
2023/11/30 00:43:41;;;;;;;12.85;6.15;;;;;;;;;;5077084;28;20262;-27
2023/11/30 00:46:08;;;;;;;10.30;6.28;;;;;;;;;;5076780;28;20048;-27
2023/11/30 00:48:34;;;;;;;13.85;6.18;;;;;;;;;;5077102;28;20028;-27
2023/11/30 00:50:59;;;;;;;14.50;6.70;;;;;;;;;;5077270;28;20340;-27
2023/11/30 00:53:24;;;;;;;12.95;6.60;;;;;;;;;;5076938;28;20434;-26
2023/11/30 00:55:49;;;;;;;12.90;6.13;;;;;;;;;;5076599;28;20026;-27
2023/11/30 00:58:14;;;;;;;10.93;6.00;;;;;;;;;;5076832;28;20302;-27
2023/11/30 01:00:40;;;;;;;11.38;6.53;;;;;;;;;;5076835;28;20273;-27
2023/11/30 01:03:05;;;;;;;11.57;6.60;;;;;;;;;;5076786;28;20069;-26
2023/11/30 01:05:30;;;;;;;13.47;6.50;;;;;;;;;;5076457;28;20254;-27
2023/11/30 01:07:55;;;;;;;12.23;6.50;;;;;;;;;;5076445;28;20293;-30
2023/11/30 01:10:21;;;;;;;11.13;6.60;;;;;;;;;;5076389;28;20263;-27
2023/11/30 01:12:46;;;;;;;12.45;6.93;;;;;;;;;;5076481;28;20255;-27
2023/11/30 01:15:11;;;;;;;13.43;7.00;;;;;;;;;;5076276;28;20016;-27
2023/11/30 01:17:36;;;;;;;12.43;6.63;;;;;;;;;;5075231;28;20025;-27
2023/11/30 01:20:01;;;;;;;11.85;6.93;;;;;;;;;;5076196;28;20074;-27
2023/11/30 01:22:27;;;;;;;10.35;6.55;;;;;;;;;;5076457;28;20059;-27
2023/11/30 01:24:52;;;;;;;11.63;6.50;;;;;;;;;;5076361;28;20412;-27
2023/11/30 01:27:17;;;;;;;9.97;6.37;;;;;;;;;;5076685;28;20262;-33
2023/11/30 01:29:42;;;;;;;10.85;6.32;;;;;;;;;;5076377;28;20733;-27
2023/11/30 01:32:07;;;;;;;10.77;6.00;;;;;;;;;;5076016;28;20482;-27
2023/11/30 01:34:32;;;;;;;11.32;5.90;;;;;;;;;;5076194;28;20305;-27
2023/11/30 01:36:58;;;;;;;14.10;6.47;;;;;;;;;;5076028;28;20425;-27
2023/11/30 01:39:23;;;;;;;11.63;5.97;;;;;;;;;;5075800;28;20279;-27
2023/11/30 01:41:48;;;;;;;9.70;5.67;;;;;;;;;;5075836;28;20247;-27
2023/11/30 01:44:13;;;;;;;11.57;6.47;;;;;;;;;;5075754;28;20247;-27
2023/11/30 01:46:38;;;;;;;13.80;6.87;;;;;;;;;;5075641;28;20338;-27
2023/11/30 01:49:04;;;;;;;16.42;6.60;;;;;;;;;;5075688;28;20259;-27
2023/11/30 01:51:31;;;;;;;13.88;6.95;;;;;;;;;;5075907;28;20035;-26
2023/11/30 01:53:58;;;;;;;9.85;5.88;;;;;;;;;;5075479;28;20106;-27
2023/11/30 01:56:23;;;;;;;11.23;6.60;;;;;;;;;;5075542;28;20016;-27
2023/11/30 01:58:49;;;;;;;10.68;6.75;;;;;;;;;;5075286;28;20050;-27
2023/11/30 02:01:15;;;;;;;12.00;6.15;;;;;;;;;;5075504;28;20020;-27
2023/11/30 02:03:40;;;;;;;12.55;7.28;;;;;;;;;;5075404;28;20016;-27
2023/11/30 02:06:05;;;;;;;10.88;6.72;;;;;;;;;;5075628;28;20016;-27
2023/11/30 02:08:31;;;;;;;10.98;6.55;;;;;;;;;;5075922;28;20444;-27
2023/11/30 02:10:56;;;;;;;11.73;6.90;;;;;;;;;;5075197;28;20063;-26
2023/11/30 02:13:23;;;;;;;11.38;6.70;;;;;;;;;;5075388;28;20107;-26
2023/11/30 02:15:49;;;;;;;10.68;6.32;;;;;;;;;;5075475;28;20020;-27
2023/11/30 02:18:14;;;;;;;14.20;6.75;;;;;;;;;;5075370;28;20073;-26
2023/11/30 02:20:39;;;;;;;11.73;6.90;;;;;;;;;;5075254;28;20024;-27
2023/11/30 02:23:04;;;;;;;12.32;6.68;;;;;;;;;;5075341;28;20305;-27
2023/11/30 02:25:29;;;;;;;12.53;6.43;;;;;;;;;;5075047;28;20036;-27
2023/11/30 02:27:58;;;;;;;10.73;6.50;;;;;;;;;;5075219;28;20249;-27
2023/11/30 02:30:23;;;;;;;11.15;6.70;;;;;;;;;;5075151;28;20028;-27
2023/11/30 02:32:48;;;;;;;13.23;7.18;;;;;;;;;;5074454;28;20368;-27
2023/11/30 02:35:14;;;;;;;13.38;7.00;;;;;;;;;;5075024;28;20471;-27
2023/11/30 02:37:39;;;;;;;12.57;7.20;;;;;;;;;;5074684;28;20020;-27
2023/11/30 02:40:04;;;;;;;13.23;6.97;;;;;;;;;;5075290;28;20079;-27
2023/11/30 02:42:29;;;;;;;12.73;6.93;;;;;;;;;;5074881;28;20667;-27
2023/11/30 02:44:55;;;;;;;12.05;7.10;;;;;;;;;;5073345;28;20020;-27
2023/11/30 02:47:20;;;;;;;13.52;7.35;;;;;;;;;;5074806;28;20076;-27
2023/11/30 02:49:45;;;;;;;11.37;6.97;;;;;;;;;;5074481;28;20463;-27
2023/11/30 02:52:10;;;;;;;11.25;6.90;;;;;;;;;;5074680;28;20270;-27
2023/11/30 02:54:35;;;;;;;12.13;6.90;;;;;;;;;;5074443;28;20523;-27
2023/11/30 02:57:00;;;;;;;11.93;7.20;;;;;;;;;;5074665;28;20246;-27
2023/11/30 02:59:26;;;;;;;12.43;6.88;;;;;;;;;;5073191;28;20318;-27
2023/11/30 03:01:51;;;;;;;13.13;7.07;;;;;;;;;;5074829;28;20027;-27
2023/11/30 03:04:16;;;;;;;11.82;6.78;;;;;;;;;;5074231;28;20270;-27
2023/11/30 03:06:42;;;;;;;13.68;7.38;;;;;;;;;;5074212;28;20024;-27
2023/11/30 03:09:08;;;;;;;11.73;7.20;;;;;;;;;;5074123;28;20028;-27
2023/11/30 03:11:33;;;;;;;14.23;7.57;;;;;;;;;;5073988;28;20028;-27
2023/11/30 03:13:58;;;;;;;12.30;7.50;;;;;;;;;;5074610;28;20062;-27
2023/11/30 03:16:27;;;;;;;16.83;7.43;;;;;;;;;;5074043;28;20382;-27
2023/11/30 03:18:52;;;;;;;12.45;6.93;;;;;;;;;;5073764;28;20283;-27
2023/11/30 03:21:18;;;;;;;15.35;7.45;;;;;;;;;;5074453;28;20073;-27
2023/11/30 03:23:43;;;;;;;16.00;7.45;;;;;;;;;;5073930;28;20017;-27
2023/11/30 03:26:08;;;;;;;13.77;7.60;;;;;;;;;;5074383;28;20036;-27
2023/11/30 03:28:34;;;;;;;12.85;7.03;;;;;;;;;;5074249;28;20045;-27
2023/11/30 03:30:59;;;;;;;14.38;7.50;;;;;;;;;;5073682;28;20052;-27
2023/11/30 03:33:24;;;;;;;12.45;6.53;;;;;;;;;;5073688;28;20447;-27
2023/11/30 03:35:51;;;;;;;12.30;7.18;;;;;;;;;;5073605;28;20107;-26
2023/11/30 03:38:16;;;;;;;12.43;6.93;;;;;;;;;;5073445;28;20020;-27
2023/11/30 03:40:41;;;;;;;15.60;7.32;;;;;;;;;;5074056;28;20019;-26
2023/11/30 03:43:06;;;;;;;14.77;7.78;;;;;;;;;;5073508;28;20024;-27
2023/11/30 03:45:32;;;;;;;20.53;7.93;;;;;;;;;;5073879;28;20016;-27
2023/11/30 03:47:57;;;;;;;14.82;7.90;;;;;;;;;;5073790;28;20290;-27
2023/11/30 03:50:22;;;;;;;14.98;7.93;;;;;;;;;;5073822;28;20020;-27
2023/11/30 03:52:48;;;;;;;13.07;7.80;;;;;;;;;;5074049;28;20020;-27
2023/11/30 03:55:13;;;;;;;14.07;7.72;;;;;;;;;;5073414;28;20250;-27
2023/11/30 03:57:38;;;;;;;15.43;7.70;;;;;;;;;;5073298;28;20391;-27
2023/11/30 04:00:04;;;;;;;12.37;7.10;;;;;;;;;;5073335;28;20052;-27
2023/11/30 04:02:32;;;;;;;14.32;7.47;;;;;;;;;;5073554;28;20614;-27
2023/11/30 04:04:57;;;;;;;14.73;8.37;;;;;;;;;;5073272;28;20016;-27
2023/11/30 04:07:29;;;;;;;14.20;7.85;;;;;;;;;;5073923;28;20286;-27
2023/11/30 04:09:54;;;;;;;16.23;8.10;;;;;;;;;;5073338;28;20127;-27
2023/11/30 04:12:20;;;;;;;16.45;8.00;;;;;;;;;;5073385;28;20017;-27
2023/11/30 04:14:45;;;;;;;13.40;8.03;;;;;;;;;;5073291;28;20020;-27
2023/11/30 04:17:10;;;;;;;19.60;8.27;;;;;;;;;;5073749;28;20253;-27
2023/11/30 04:19:35;;;;;;;16.23;8.18;;;;;;;;;;5073067;28;20306;-27
2023/11/30 04:22:00;;;;;;;15.82;8.00;;;;;;;;;;5073202;28;20027;-27
2023/11/30 04:24:26;;;;;;;13.03;8.03;;;;;;;;;;5073724;28;20070;-27
2023/11/30 04:26:51;;;;;;;14.90;8.03;;;;;;;;;;5073168;28;20259;-27
2023/11/30 04:29:16;;;;;;;13.52;8.05;;;;;;;;;;5073660;28;20251;-27
2023/11/30 04:31:42;;;;;;;19.38;8.48;;;;;;;;;;5073664;28;20020;-27
2023/11/30 04:34:08;;;;;;;13.20;7.95;;;;;;;;;;5073339;28;20086;-27
2023/11/30 04:36:33;;;;;;;15.27;8.30;;;;;;;;;;5073042;28;20021;-27
2023/11/30 04:38:59;;;;;;;14.83;8.13;;;;;;;;;;5073553;28;20028;-27
2023/11/30 04:41:24;;;;;;;13.68;7.88;;;;;;;;;;5073272;28;20255;-27
2023/11/30 04:43:49;;;;;;;14.73;7.93;;;;;;;;;;5072942;28;20027;-27
2023/11/30 04:46:14;;;;;;;16.02;8.52;;;;;;;;;;5073259;28;20024;-26
2023/11/30 04:48:40;;;;;;;16.65;8.55;;;;;;;;;;5073283;28;20095;-27
2023/11/30 04:51:05;;;;;;;13.40;7.67;;;;;;;;;;5073547;28;20108;-27
2023/11/30 04:53:31;;;;;;;13.52;8.05;;;;;;;;;;5072882;28;20726;-27
2023/11/30 04:55:56;;;;;;;17.17;8.65;;;;;;;;;;5072772;28;20035;-27
2023/11/30 04:58:21;;;;;;;14.47;8.57;;;;;;;;;;5073255;28;20037;-27
2023/11/30 05:00:47;;;;;;;14.77;8.30;;;;;;;;;;5072866;28;20305;-27
2023/11/30 05:03:13;;;;;;;13.32;8.27;;;;;;;;;;5073090;28;20422;-27
2023/11/30 05:05:38;;;;;;;15.63;8.30;;;;;;;;;;5073004;28;20016;-26
2023/11/30 05:08:03;;;;;;;15.50;8.75;;;;;;;;;;5072820;28;20016;-27
2023/11/30 05:10:28;;;;;;;18.67;9.05;;;;;;;;;;5072770;28;20025;-27
2023/11/30 05:12:53;;;;;;;14.07;8.13;;;;;;;;;;5072702;28;20017;-27
2023/11/30 05:15:19;;;;;;;16.93;8.93;;;;;;;;;;5071444;28;20274;-27
2023/11/30 05:17:44;;;;;;;19.63;9.15;;;;;;;;;;5072544;28;20353;-27
2023/11/30 05:20:09;;;;;;;15.47;9.13;;;;;;;;;;5072682;28;20478;-27
2023/11/30 05:22:34;;;;;;;16.27;9.15;;;;;;;;;;5075106;28;20251;-27
2023/11/30 05:25:00;;;;;;;16.10;9.17;;;;;;;;;;5076198;28;20017;-27
2023/11/30 05:27:25;;;;;;;16.80;8.43;;;;;;;;;;5075133;28;20255;-26
2023/11/30 05:29:51;;;;;;;21.27;9.20;;;;;;;;;;5076266;28;20024;-27
2023/11/30 05:32:16;;;;;;;13.60;8.83;;;;;;;;;;5076572;28;20027;-26
2023/11/30 05:34:41;;;;;;;14.93;9.10;;;;;;;;;;5076296;28;20655;-26
2023/11/30 05:37:07;;;;;;;14.10;8.63;;;;;;;;;;5075923;28;20031;-26
2023/11/30 05:39:32;;;;;;;18.92;9.40;;;;;;;;;;5076123;28;20016;-26
2023/11/30 05:42:00;;;;;;;16.27;9.30;;;;;;;;;;5076083;28;20020;-26
2023/11/30 05:44:25;;;;;;;16.55;10.13;;;;;;;;;;5075654;28;20023;-27
2023/11/30 05:46:51;;;;;;;21.03;9.83;;;;;;;;;;5076028;28;20013;-26
2023/11/30 05:49:17;;;;;;;19.05;10.15;;;;;;;;;;5075685;28;20791;-26
2023/11/30 05:51:42;;;;;;;19.47;10.00;;;;;;;;;;5076266;28;20024;-26
2023/11/30 05:54:08;;;;;;;17.27;9.75;;;;;;;;;;5075581;28;20350;-26
2023/11/30 05:56:33;;;;;;;20.02;10.52;;;;;;;;;;5075777;28;20507;-27
2023/11/30 05:58:58;;;;;;;19.23;10.80;;;;;;;;;;5075224;28;20120;-26
2023/11/30 06:01:23;;;;;;;18.03;9.90;;;;;;;;;;5076051;28;20162;-26
2023/11/30 06:03:49;;;;;;;19.70;10.57;;;;;;;;;;5074176;28;20262;-26
2023/11/30 06:06:14;;;;;;;20.77;10.35;;;;;;;;;;5075403;28;20357;-26
2023/11/30 06:08:39;;;;;;;22.63;10.90;;;;;;;;;;5075898;28;20539;-26
2023/11/30 06:11:04;;;;;;;19.03;10.53;;;;;;;;;;5075792;28;20024;-27
2023/11/30 06:13:30;;;;;;;19.95;10.57;;;;;;;;;;5075241;28;20297;-26
2023/11/30 06:15:55;;;;;;;22.13;10.98;;;;;;;;;;5073613;28;20056;-26
2023/11/30 06:18:20;;;;;;;23.15;12.05;;;;;;;;;;5075336;28;20119;-26
2023/11/30 06:20:45;;;;;;;20.20;11.73;;;;;;;;;;5075601;28;20111;-26
2023/11/30 06:23:11;;;;;;;22.25;11.45;;;;;;;;;;5074980;28;20021;-26
2023/11/30 06:25:36;;;;;;;21.73;11.40;;;;;;;;;;5075522;28;20025;-26
2023/11/30 06:28:01;;;;;;;23.57;11.47;;;;;;;;;;5074930;28;20769;-26
2023/11/30 06:30:26;;;;;;;22.80;11.57;;;;;;;;;;5074834;28;20365;-26
2023/11/30 06:32:51;;;;;;;19.30;10.65;;;;;;;;;;5074794;28;20468;-26
2023/11/30 06:35:17;;;;;;;21.35;11.13;;;;;;;;;;5074714;28;20464;-26
2023/11/30 06:37:42;;;;;;;20.42;10.85;;;;;;;;;;5074781;28;20032;-27
2023/11/30 06:40:08;;;;;;;19.73;10.77;;;;;;;;;;5074635;28;20016;-26
2023/11/30 06:42:34;;;;;;;23.02;11.50;;;;;;;;;;5074550;28;20255;-26
2023/11/30 06:44:59;;;;;;;19.17;11.18;;;;;;;;;;5074466;28;20070;-26
2023/11/30 06:47:24;;;;;;;20.70;11.63;;;;;;;;;;5075063;28;20035;-27
2023/11/30 06:49:50;;;;;;;21.65;11.82;;;;;;;;;;5074808;28;20379;-26
2023/11/30 06:52:15;;;;;;;20.23;11.77;;;;;;;;;;5074695;28;20029;-27
2023/11/30 06:54:41;;;;;;;21.02;11.68;;;;;;;;;;5074664;28;20083;-26
2023/11/30 06:57:06;;;;;;;19.80;10.80;;;;;;;;;;5074279;28;20387;-27
2023/11/30 06:59:31;;;;;;;20.80;11.07;;;;;;;;;;5074907;28;20290;-26
2023/11/30 07:01:56;;;;;;;19.70;12.00;;;;;;;;;;5074758;28;20258;-26
2023/11/30 07:04:21;;;;;;;25.03;12.83;;;;;;;;;;5074172;28;20341;-26
2023/11/30 07:06:46;;;;;;;20.97;11.77;;;;;;;;;;5074708;28;20258;-26
2023/11/30 07:09:12;;;;;;;25.48;12.23;;;;;;;;;;5073961;28;20716;-26
2023/11/30 07:11:37;;;;;;;17.33;10.73;;;;;;;;;;5074158;28;20020;-26
2023/11/30 07:14:03;;;;;;;20.60;11.70;;;;;;;;;;5073986;28;20459;-26
2023/11/30 07:16:28;;;;;;;21.48;11.70;;;;;;;;;;5074211;28;20021;-26
2023/11/30 07:18:53;;;;;;;21.50;11.47;;;;;;;;;;5074298;28;20144;-26
2023/11/30 07:21:18;;;;;;;24.67;13.73;;;;;;;;;;5073771;28;20258;-26
2023/11/30 07:23:43;;;;;;;24.40;12.85;;;;;;;;;;5074086;28;20070;-26
2023/11/30 07:26:09;;;;;;;27.33;16.17;;;;;;;;;;5073756;28;20017;-26
2023/11/30 07:28:34;;;;;;;24.52;13.02;;;;;;;;;;5073799;28;20024;-26
2023/11/30 07:31:00;;;;;;;23.02;12.02;;;;;;;;;;5074051;28;20020;-26
2023/11/30 07:33:25;;;;;;;22.93;12.07;;;;;;;;;;5072775;28;20027;-26
2023/11/30 07:35:50;;;;;;;20.70;12.47;;;;;;;;;;5072904;28;20766;-27
2023/11/30 07:38:15;;;;;;;28.50;11.47;;;;;;;;;;5073092;28;20320;-26
2023/11/30 07:40:40;;;;;;;26.15;12.77;;;;;;;;;;5073051;28;20305;-26
2023/11/30 07:43:05;;;;;;;41.50;11.55;;;;;;;;;;5072227;28;20040;-26
2023/11/30 07:45:31;;;;;;;25.80;12.90;;;;;;;;;;5072625;28;20016;-26
2023/11/30 07:47:59;;;;;;;35.28;13.95;;;;;;;;;;5073409;28;20028;-26
2023/11/30 07:50:27;;;;;;;25.10;13.38;;;;;;;;;;5073796;28;20017;-26
2023/11/30 07:52:52;;;;;;;35.53;13.70;;;;;;;;;;5073453;28;20092;-26
2023/11/30 07:55:17;;;;;;;28.95;13.73;;;;;;;;;;5073357;28;20028;-26
2023/11/30 07:57:42;;;;;;;24.10;13.15;;;;;;;;;;5074123;28;20066;-26
2023/11/30 08:00:08;;;;;;;37.83;18.65;;;;;;;;;;5073184;28;20399;-26
2023/11/30 08:02:34;;;;;;;33.47;18.23;;;;;;;;;;5072068;28;20017;-27
2023/11/30 08:04:59;;;;;;;70.25;14.18;;;;;;;;;;5073304;28;20459;-26
2023/11/30 08:07:24;;;;;;;109.63;16.83;;;;;;;;;;5073594;28;20031;-27
2023/11/30 08:09:49;;;;;;;74.60;15.47;;;;;;;;;;5073275;28;20618;-26
2023/11/30 08:12:14;;;;;;;79.97;14.43;;;;;;;;;;5073253;28;20323;-26
2023/11/30 08:14:40;;;;;;;94.93;14.77;;;;;;;;;;5073224;28;20266;-26
2023/11/30 08:17:05;;;;;;;58.97;13.70;;;;;;;;;;5073174;28;20353;-27
2023/11/30 08:19:30;;;;;;;37.10;13.23;;;;;;;;;;5073004;28;20282;-31
2023/11/30 08:21:55;;;;;;;87.28;15.30;;;;;;;;;;5073627;28;20029;-26
2023/11/30 08:24:20;;;;;;;85.93;18.57;;;;;;;;;;5073683;28;20017;-26
2023/11/30 08:26:46;;;;;;;48.50;13.57;;;;;;;;;;5073037;28;20688;-26
2023/11/30 08:29:11;;;;;;;93.18;15.68;;;;;;;;;;5073791;28;20316;-26
2023/11/30 08:31:37;;;;;;;196.15;17.02;;;;;;;;;;5073029;28;20016;-26
2023/11/30 08:34:02;;;;;;;160.63;16.75;;;;;;;;;;5073226;28;20039;-26
2023/11/30 08:36:28;;;;;;;228.30;19.23;;;;;;;;;;5072980;28;20047;-26
2023/11/30 08:38:53;;;;;;;186.23;18.65;;;;;;;;;;5072864;28;20025;-26
2023/11/30 08:41:20;;;;;;;87.38;16.92;;;;;;;;;;5072925;28;20016;-26
2023/11/30 08:43:45;;;;;;;112.70;16.88;;;;;;;;;;5072924;28;20026;-26
2023/11/30 08:46:11;;;;;;;43.40;15.83;;;;;;;;;;5073164;28;20097;-26
2023/11/30 08:48:37;;;;;;;41.72;15.35;;;;;;;;;;5072926;28;20595;-27
2023/11/30 08:51:02;;;;;;;46.70;15.97;;;;;;;;;;5072911;28;20069;-26
2023/11/30 08:53:27;;;;;;;41.38;15.48;;;;;;;;;;5072793;28;20270;-26
2023/11/30 08:55:52;;;;;;;40.88;15.68;;;;;;;;;;5072890;28;20024;-27
2023/11/30 08:58:17;;;;;;;80.57;15.87;;;;;;;;;;5076212;28;20044;-27
2023/11/30 09:00:43;;;;;;;36.63;15.90;;;;;;;;;;5076576;28;20600;-26
2023/11/30 09:03:08;;;;;;;96.40;18.55;;;;;;;;;;5076607;28;20271;-26
2023/11/30 09:05:34;;;;;;;92.82;17.95;;;;;;;;;;5076654;28;20016;-26
2023/11/30 09:07:59;;;;;;;52.58;17.75;;;;;;;;;;5076831;28;20020;-27
2023/11/30 09:10:24;;;;;;;63.47;17.43;;;;;;;;;;5076387;28;20012;-26
2023/11/30 09:12:49;;;;;;;63.75;17.88;;;;;;;;;;5076282;28;20251;-26
2023/11/30 09:15:15;;;;;;;63.85;17.05;;;;;;;;;;5076270;28;20021;-26
2023/11/30 09:17:41;;;;;;;95.47;18.42;;;;;;;;;;5076248;28;20472;-26
2023/11/30 09:20:09;;;;;;;91.15;19.55;;;;;;;;;;5076104;28;20027;-27
2023/11/30 09:22:34;;;;;;;91.95;16.48;;;;;;;;;;5076156;28;20020;-26
2023/11/30 09:24:59;;;;;;;95.97;18.55;;;;;;;;;;5076063;28;20459;-26
2023/11/30 09:27:25;;;;;;;79.17;17.33;;;;;;;;;;5076678;28;20024;-26
2023/11/30 09:29:50;;;;;;;70.32;17.92;;;;;;;;;;5074746;28;20310;-27
2023/11/30 09:32:15;;;;;;;52.10;16.90;;;;;;;;;;5076543;28;20020;-26
2023/11/30 09:34:41;;;;;;;57.97;16.95;;;;;;;;;;5076510;28;20016;-26
2023/11/30 09:37:06;;;;;;;68.72;16.58;;;;;;;;;;5075902;28;20024;-26
2023/11/30 09:39:32;;;;;;;47.80;17.30;;;;;;;;;;5075993;28;20020;-27
2023/11/30 09:41:59;;;;;;;75.85;16.48;;;;;;;;;;5076083;28;20105;-26
2023/11/30 09:44:25;;;;;;;53.95;17.15;;;;;;;;;;5076133;28;20016;-27
2023/11/30 09:46:50;;;;;;;75.85;16.08;;;;;;;;;;5075603;28;20317;-26
2023/11/30 09:49:16;;;;;;;102.55;17.90;;;;;;;;;;5075932;28;20020;-26
2023/11/30 09:51:41;;;;;;;100.93;17.70;;;;;;;;;;5075905;28;20421;-26
2023/11/30 09:54:06;;;;;;;77.93;16.75;;;;;;;;;;5075554;28;20062;-26
2023/11/30 09:56:31;;;;;;;186.50;18.40;;;;;;;;;;5075520;28;20472;-26
2023/11/30 09:58:57;;;;;;;138.77;18.00;;;;;;;;;;5075543;28;20290;-26
2023/11/30 10:01:22;;;;;;;79.75;16.85;;;;;;;;;;5075048;28;20319;-27
2023/11/30 10:03:48;;;;;;;43.53;14.83;;;;;;;;;;5073904;28;20012;-28
2023/11/30 10:06:13;;;;;;;61.45;15.45;;;;;;;;;;5075621;28;20265;-28
2023/11/30 10:08:39;;;;;;;76.65;15.00;;;;;;;;;;5075416;28;20047;-27
2023/11/30 10:11:05;;;;;;;89.65;15.85;;;;;;;;;;5075706;28;20020;-28
2023/11/30 10:13:30;;;;;;;52.75;14.25;;;;;;;;;;5075253;28;20016;-27
2023/11/30 10:15:56;;;;;;;73.53;15.30;;;;;;;;;;5075762;28;20070;-27
2023/11/30 10:18:21;;;;;;;136.23;18.50;;;;;;;;;;5075063;28;20274;-27
2023/11/30 10:20:47;;;;;;;95.40;15.70;;;;;;;;;;5075015;28;20365;-27
2023/11/30 10:23:12;;;;;;;212.63;20.27;;;;;;;;;;5075013;28;20028;-27
2023/11/30 10:25:40;;;;;;;87.03;14.40;;;;;;;;;;5074972;28;20021;-27
2023/11/30 10:28:09;;;;;;;68.80;14.90;;;;;;;;;;5074905;28;20406;-27
2023/11/30 10:30:38;;;;;;;103.05;16.65;;;;;;;;;;5073642;28;20016;-27
2023/11/30 10:33:05;;;;;;;111.93;15.13;;;;;;;;;;5075155;28;20020;-27
2023/11/30 10:35:31;;;;;;;65.85;15.38;;;;;;;;;;5074873;28;20455;-27
2023/11/30 10:37:57;;;;;;;74.60;15.27;;;;;;;;;;5073591;28;20024;-27
2023/11/30 10:40:24;;;;;;;62.00;14.95;;;;;;;;;;5074098;28;20021;-27
2023/11/30 10:42:49;;;;;;;76.22;16.80;;;;;;;;;;5073948;28;20051;-27
2023/11/30 10:45:15;;;;;;;36.25;14.82;;;;;;;;;;5073643;28;20121;-27
2023/11/30 10:47:41;;;;;;;33.22;13.05;;;;;;;;;;5074560;28;20017;-27
2023/11/30 10:50:07;;;;;;;53.80;14.35;;;;;;;;;;5074449;28;20024;-27
2023/11/30 10:52:34;;;;;;;33.08;13.75;;;;;;;;;;5074406;28;20020;-27
2023/11/30 10:55:03;;;;;;;42.53;14.32;;;;;;;;;;5074656;28;20020;-27
2023/11/30 10:57:29;;;;;;;30.38;13.45;;;;;;;;;;5074570;28;20048;-27
2023/11/30 11:00:01;;;;;;;37.00;14.93;;;;;;;;;;5074187;28;20514;-27
2023/11/30 11:02:37;;;;;;;33.63;13.33;;;;;;;;;;5074274;28;20051;-27
2023/11/30 11:05:08;;;;;;;30.88;13.40;;;;;;;;;;5074444;28;20020;-27
2023/11/30 11:07:33;;;;;;;38.42;14.02;;;;;;;;;;5074459;28;20009;-27
2023/11/30 11:10:00;;;;;;;43.78;14.50;;;;;;;;;;5074168;28;20472;-27
2023/11/30 11:12:26;;;;;;;46.67;14.35;;;;;;;;;;5073898;28;20111;-27
2023/11/30 11:15:04;;;;;;;61.83;14.40;;;;;;;;;;5073967;28;20028;-27
2023/11/30 11:17:29;;;;;;;40.85;14.05;;;;;;;;;;5074537;28;20027;-27
2023/11/30 11:19:58;;;;;;;39.47;13.52;;;;;;;;;;5073043;28;20028;-27
2023/11/30 11:22:24;;;;;;;38.28;13.68;;;;;;;;;;5073974;28;20414;-27
2023/11/30 11:24:55;;;;;;;29.57;12.77;;;;;;;;;;5074287;28;20091;-27
2023/11/30 11:27:26;;;;;;;29.33;14.07;;;;;;;;;;5073832;28;20255;-27
2023/11/30 11:29:51;;;;;;;31.67;15.02;;;;;;;;;;5074147;28;20546;-27
2023/11/30 11:32:17;;;;;;;44.00;15.07;;;;;;;;;;5074202;28;20050;-27
2023/11/30 11:34:42;;;;;;;32.40;15.45;;;;;;;;;;5074306;28;20579;-27
2023/11/30 11:37:07;;;;;;;30.57;14.67;;;;;;;;;;5073699;28;20047;-27
2023/11/30 11:39:33;;;;;;;31.93;15.77;;;;;;;;;;5073829;28;20293;-27
2023/11/30 11:41:58;;;;;;;33.75;15.55;;;;;;;;;;5073734;28;20603;-27
2023/11/30 11:44:24;;;;;;;29.23;14.77;;;;;;;;;;5074146;28;20047;-27
2023/11/30 11:46:49;;;;;;;32.70;15.85;;;;;;;;;;5073687;28;20255;-27
2023/11/30 11:49:14;;;;;;;35.08;15.20;;;;;;;;;;5073691;28;20056;-27
2023/11/30 11:51:44;;;;;;;33.03;15.77;;;;;;;;;;5072829;28;20024;-27
2023/11/30 11:54:16;;;;;;;30.52;14.70;;;;;;;;;;5073399;28;20328;-27
2023/11/30 11:56:45;;;;;;;28.17;14.60;;;;;;;;;;5073369;28;20028;-28
2023/11/30 11:59:10;;;;;;;26.92;14.02;;;;;;;;;;5073282;28;20327;-27
2023/11/30 12:01:38;;;;;;;28.90;13.57;;;;;;;;;;5073312;28;20472;-27
2023/11/30 12:04:03;;;;;;;24.40;13.13;;;;;;;;;;5073873;28;20262;-27
2023/11/30 12:06:29;;;;;;;24.10;12.68;;;;;;;;;;5073256;28;20013;-27
2023/11/30 12:08:55;;;;;;;24.50;12.18;;;;;;;;;;5073228;28;20491;-27
2023/11/30 12:11:20;;;;;;;22.77;13.10;;;;;;;;;;5073214;28;20066;-27
2023/11/30 12:13:49;;;;;;;22.52;12.30;;;;;;;;;;5073717;28;20737;-27
2023/11/30 12:16:14;;;;;;;22.88;11.75;;;;;;;;;;5073175;28;20459;-27
2023/11/30 12:18:39;;;;;;;22.60;10.50;;;;;;;;;;5073692;28;20031;-27
2023/11/30 12:21:04;;;;;;;20.60;11.43;;;;;;;;;;5073487;28;20605;-27
2023/11/30 12:23:30;;;;;;;22.50;12.07;;;;;;;;;;5073597;28;20282;-27
2023/11/30 12:25:56;;;;;;;26.17;12.53;;;;;;;;;;5073119;28;20319;-27
2023/11/30 12:28:22;;;;;;;29.13;11.98;;;;;;;;;;5073324;28;20263;-27
2023/11/30 12:30:47;;;;;;;25.63;13.13;;;;;;;;;;5074165;28;20028;-27
2023/11/30 12:33:12;;;;;;;21.70;11.83;;;;;;;;;;5077220;28;20425;-27
2023/11/30 12:35:37;;;;;;;19.17;11.20;;;;;;;;;;5077064;28;20254;-27
2023/11/30 12:38:03;;;;;;;20.45;11.32;;;;;;;;;;5076080;28;20017;-27
2023/11/30 12:40:28;;;;;;;26.00;12.67;;;;;;;;;;5077069;28;20111;-27
2023/11/30 12:42:53;;;;;;;25.10;13.03;;;;;;;;;;5077552;28;20243;-27
2023/11/30 12:45:18;;;;;;;24.27;12.13;;;;;;;;;;5077387;28;20259;-28
2023/11/30 12:47:45;;;;;;;26.67;13.07;;;;;;;;;;5077114;28;20319;-27
2023/11/30 12:50:10;;;;;;;25.48;12.93;;;;;;;;;;5077018;28;20262;-27
2023/11/30 12:52:36;;;;;;;24.90;12.93;;;;;;;;;;5077304;28;20478;-27
2023/11/30 12:55:02;;;;;;;24.30;13.30;;;;;;;;;;5075864;28;20487;-27
2023/11/30 12:57:27;;;;;;;21.83;11.82;;;;;;;;;;5076966;28;20031;-27
2023/11/30 12:59:52;;;;;;;22.48;11.82;;;;;;;;;;5076743;28;20533;-27
2023/11/30 13:02:18;;;;;;;20.58;10.80;;;;;;;;;;5076725;28;20019;-27
2023/11/30 13:04:43;;;;;;;21.83;11.98;;;;;;;;;;5076479;28;20019;-27
2023/11/30 13:07:08;;;;;;;22.47;11.30;;;;;;;;;;5076683;28;20104;-27
2023/11/30 13:09:34;;;;;;;22.55;11.63;;;;;;;;;;5076731;28;20789;-27
2023/11/30 13:12:00;;;;;;;20.55;10.68;;;;;;;;;;5076606;28;20021;-27
2023/11/30 13:14:25;;;;;;;24.77;11.52;;;;;;;;;;5076346;28;20031;-27
2023/11/30 13:16:51;;;;;;;23.65;11.13;;;;;;;;;;5076543;28;20020;-27
2023/11/30 13:19:16;;;;;;;23.77;11.93;;;;;;;;;;5076460;28;20481;-27
2023/11/30 13:21:41;;;;;;;23.30;11.83;;;;;;;;;;5076244;28;20460;-27
2023/11/30 13:24:06;;;;;;;23.05;12.32;;;;;;;;;;5076231;28;20304;-27
2023/11/30 13:26:32;;;;;;;20.75;10.60;;;;;;;;;;5076117;28;20048;-27
2023/11/30 13:28:57;;;;;;;21.63;11.00;;;;;;;;;;5075966;28;20144;-27
2023/11/30 13:31:22;;;;;;;19.40;10.60;;;;;;;;;;5076599;28;20016;-27
2023/11/30 13:33:48;;;;;;;23.57;11.17;;;;;;;;;;5076350;28;20029;-27
2023/11/30 13:36:13;;;;;;;25.92;12.18;;;;;;;;;;5075878;28;20243;-27
2023/11/30 13:38:39;;;;;;;20.85;10.32;;;;;;;;;;5076155;28;20054;-27
2023/11/30 13:41:06;;;;;;;20.23;10.52;;;;;;;;;;5075927;28;20086;-27
2023/11/30 13:43:31;;;;;;;19.20;10.25;;;;;;;;;;5075207;28;20447;-27
2023/11/30 13:45:56;;;;;;;20.98;10.80;;;;;;;;;;5076346;28;20024;-26
2023/11/30 13:48:21;;;;;;;21.52;11.50;;;;;;;;;;5076402;28;20028;-27
2023/11/30 13:50:47;;;;;;;18.63;9.97;;;;;;;;;;5075721;28;20490;-27
2023/11/30 13:53:15;;;;;;;24.27;10.88;;;;;;;;;;5075900;28;20266;-27
2023/11/30 13:55:42;;;;;;;20.60;10.75;;;;;;;;;;5075719;28;20033;-27
2023/11/30 13:58:09;;;;;;;18.40;10.27;;;;;;;;;;5075284;28;20066;-27
2023/11/30 14:00:35;;;;;;;20.30;10.75;;;;;;;;;;5075444;28;20127;-27
2023/11/30 14:03:01;;;;;;;20.52;10.90;;;;;;;;;;5075384;28;20020;-27
2023/11/30 14:05:27;;;;;;;19.77;10.93;;;;;;;;;;5075698;28;20017;-27
2023/11/30 14:07:52;;;;;;;19.25;10.63;;;;;;;;;;5075356;28;20455;-27
2023/11/30 14:10:17;;;;;;;22.52;11.25;;;;;;;;;;5075303;28;20070;-27